createdAt,value
2016-04-02T00:00:29.626Z,964.54
2016-04-02T00:01:29.646Z,964.56
2016-04-02T00:02:29.648Z,964.57
2016-04-02T00:03:29.651Z,964.56
2016-04-02T00:04:29.669Z,964.55
2016-04-02T00:05:29.671Z,964.58
2016-04-02T00:06:29.674Z,964.6
2016-04-02T00:07:29.677Z,964.54
2016-04-02T00:08:29.695Z,964.53
2016-04-02T00:09:29.698Z,964.56
2016-04-02T00:10:29.700Z,964.55
2016-04-02T00:11:29.719Z,964.55
2016-04-02T00:12:29.721Z,964.55
2016-04-02T00:13:29.724Z,964.55
2016-04-02T00:14:29.727Z,964.54
2016-04-02T00:15:29.745Z,964.5
2016-04-02T00:16:29.732Z,964.52
2016-04-02T00:17:29.767Z,964.5
2016-04-02T00:18:29.753Z,964.46
2016-04-02T00:19:29.756Z,964.47
2016-04-02T00:20:29.774Z,964.47
2016-04-02T00:21:29.762Z,964.47
2016-04-02T00:22:29.780Z,964.44
2016-04-02T00:23:29.783Z,964.47
2016-04-02T00:24:29.786Z,964.53
2016-04-02T00:25:29.803Z,964.48
2016-04-02T00:26:29.838Z,964.52
2016-04-02T00:27:29.809Z,964.55
2016-04-02T00:28:29.812Z,964.51
2016-04-02T00:29:29.830Z,964.47
2016-04-02T00:30:29.848Z,964.5
2016-04-02T00:31:29.851Z,964.4
2016-04-02T00:32:29.838Z,964.4
2016-04-02T00:33:29.871Z,964.4
2016-04-02T00:34:29.859Z,964.38
2016-04-02T00:35:29.866Z,964.38
2016-04-02T00:36:29.869Z,964.38
2016-04-02T00:37:29.871Z,964.34
2016-04-02T00:38:29.890Z,964.34
2016-04-02T00:39:29.893Z,964.36
2016-04-02T00:40:29.895Z,964.3
2016-04-02T00:41:29.899Z,964.31
2016-04-02T00:42:29.917Z,964.34
2016-04-02T00:43:29.919Z,964.4
2016-04-02T00:44:29.923Z,964.42
2016-04-02T00:45:29.940Z,964.43
2016-04-02T00:46:29.943Z,964.43
2016-04-02T00:47:29.945Z,964.43
2016-04-02T00:48:29.948Z,964.44
2016-04-02T00:49:29.951Z,964.43
2016-04-02T00:50:29.969Z,964.42
2016-04-02T00:51:29.972Z,964.38
2016-04-02T00:52:29.975Z,964.36
2016-04-02T00:53:29.977Z,964.4
2016-04-02T00:54:29.980Z,964.37
2016-04-02T00:55:29.983Z,964.41
2016-04-02T00:56:30.001Z,964.36
2016-04-02T00:57:30.004Z,964.37
2016-04-02T00:58:30.006Z,964.38
2016-04-02T00:59:30.025Z,964.44
2016-04-02T01:00:30.027Z,964.44
2016-04-02T01:01:30.030Z,964.43
2016-04-02T01:02:30.033Z,964.45
2016-04-02T01:03:30.035Z,964.43
2016-04-02T01:04:30.054Z,964.46
2016-04-02T01:05:30.057Z,964.41
2016-04-02T01:06:30.075Z,964.42
2016-04-02T01:07:30.062Z,964.4
2016-04-02T01:08:30.111Z,964.38
2016-04-02T01:09:30.083Z,964.34
2016-04-02T01:10:30.102Z,964.38
2016-04-02T01:11:30.088Z,964.36
2016-04-02T01:12:30.123Z,964.31
2016-04-02T01:13:30.109Z,964.32
2016-04-02T01:14:30.112Z,964.28
2016-04-02T01:15:30.114Z,964.27
2016-04-02T01:16:30.134Z,964.31
2016-04-02T01:17:30.136Z,964.28
2016-04-02T01:18:30.138Z,964.29
2016-04-02T01:19:30.141Z,964.25
2016-04-02T01:20:30.159Z,964.26
2016-04-02T01:21:30.162Z,964.25
2016-04-02T01:22:30.165Z,964.25
2016-04-02T01:23:30.168Z,964.25
2016-04-02T01:24:30.186Z,964.27
2016-04-02T01:25:30.188Z,964.28
2016-04-02T01:26:30.191Z,964.27
2016-04-02T01:27:30.210Z,964.3
2016-04-02T01:28:30.197Z,964.33
2016-04-02T01:29:30.216Z,964.33
2016-04-02T01:30:30.218Z,964.35
2016-04-02T01:31:30.221Z,964.37
2016-04-02T01:32:30.224Z,964.39
2016-04-02T01:33:30.241Z,964.41
2016-04-02T01:34:30.244Z,964.36
2016-04-02T01:35:30.247Z,964.38
2016-04-02T01:36:30.265Z,964.36
2016-04-02T01:37:30.268Z,964.35
2016-04-02T01:38:30.286Z,964.34
2016-04-02T01:39:30.273Z,964.35
2016-04-02T01:40:30.276Z,964.33
2016-04-02T01:41:30.279Z,964.3
2016-04-02T01:42:30.296Z,964.29
2016-04-02T01:43:30.299Z,964.25
2016-04-02T01:44:30.302Z,964.24
2016-04-02T01:45:30.336Z,964.2
2016-04-02T01:46:30.323Z,964.13
2016-04-02T01:47:30.342Z,964.05
2016-04-02T01:48:30.328Z,964.07
2016-04-02T01:49:30.331Z,964.03
2016-04-02T01:50:30.349Z,964.04
2016-04-02T01:51:30.352Z,964.01
2016-04-02T01:52:30.355Z,964.02
2016-04-02T01:53:30.373Z,964.07
2016-04-02T01:54:30.375Z,964.1
2016-04-02T01:55:30.394Z,964.13
2016-04-02T01:56:30.374Z,964.16
2016-04-02T01:57:30.365Z,964.23
2016-04-02T01:58:30.372Z,964.22
2016-04-02T01:59:30.363Z,964.21
2016-04-02T02:00:30.370Z,964.17
2016-04-02T02:01:30.350Z,964.16
2016-04-02T02:02:30.348Z,964.2
2016-04-02T02:03:30.378Z,964.18
2016-04-02T02:04:30.361Z,964.19
2016-04-02T02:05:30.360Z,964.19
2016-04-02T02:06:30.375Z,964.21
2016-04-02T02:07:30.376Z,964.22
2016-04-02T02:08:30.403Z,964.19
2016-04-02T02:09:30.372Z,964.21
2016-04-02T02:10:30.389Z,964.14
2016-04-02T02:11:30.391Z,964.11
2016-04-02T02:12:30.394Z,964.06
2016-04-02T02:13:30.412Z,964.06
2016-04-02T02:14:30.406Z,964.08
2016-04-02T02:15:30.424Z,964.06
2016-04-02T02:16:30.427Z,964.07
2016-04-02T02:17:30.429Z,964.08
2016-04-02T02:18:30.431Z,964.08
2016-04-02T02:19:30.433Z,964.07
2016-04-02T02:20:30.435Z,964.06
2016-04-02T02:21:30.454Z,964.05
2016-04-02T02:22:30.456Z,964.06
2016-04-02T02:23:30.459Z,964.06
2016-04-02T02:24:30.478Z,964
2016-04-02T02:25:30.480Z,963.99
2016-04-02T02:26:30.483Z,963.96
2016-04-02T02:27:30.502Z,963.96
2016-04-02T02:28:30.504Z,963.94
2016-04-02T02:29:30.507Z,963.93
2016-04-02T02:30:30.509Z,963.92
2016-04-02T02:31:30.528Z,963.92
2016-04-02T02:32:30.515Z,963.9
2016-04-02T02:33:30.534Z,963.95
2016-04-02T02:34:30.537Z,963.95
2016-04-02T02:35:30.539Z,963.95
2016-04-02T02:36:30.558Z,963.96
2016-04-02T02:37:30.561Z,963.95
2016-04-02T02:38:30.578Z,963.91
2016-04-02T02:39:30.566Z,963.91
2016-04-02T02:40:30.568Z,963.91
2016-04-02T02:41:30.572Z,963.89
2016-04-02T02:42:30.589Z,963.86
2016-04-02T02:43:30.592Z,963.94
2016-04-02T02:44:30.611Z,963.89
2016-04-02T02:45:30.597Z,963.89
2016-04-02T02:46:30.616Z,963.86
2016-04-02T02:47:30.619Z,963.86
2016-04-02T02:48:30.621Z,963.84
2016-04-02T02:49:30.639Z,963.81
2016-04-02T02:50:30.641Z,963.82
2016-04-02T02:51:30.644Z,963.84
2016-04-02T02:52:30.647Z,963.86
2016-04-02T02:53:30.665Z,963.82
2016-04-02T02:54:30.668Z,963.84
2016-04-02T02:55:30.687Z,963.84
2016-04-02T02:56:30.674Z,963.8
2016-04-02T02:57:30.693Z,963.85
2016-04-02T02:58:30.679Z,963.84
2016-04-02T02:59:30.698Z,963.85
2016-04-02T03:00:30.700Z,963.82
2016-04-02T03:01:30.703Z,963.79
2016-04-02T03:02:30.706Z,963.78
2016-04-02T03:03:30.723Z,963.75
2016-04-02T03:04:30.727Z,963.77
2016-04-02T03:05:30.729Z,963.67
2016-04-02T03:06:30.748Z,963.68
2016-04-02T03:07:30.751Z,963.69
2016-04-02T03:08:30.754Z,963.67
2016-04-02T03:09:30.756Z,963.64
2016-04-02T03:10:30.775Z,963.62
2016-04-02T03:11:30.777Z,963.63
2016-04-02T03:12:30.780Z,963.65
2016-04-02T03:13:30.783Z,963.63
2016-04-02T03:14:30.785Z,963.66
2016-04-02T03:15:30.788Z,963.7
2016-04-02T03:16:30.790Z,963.72
2016-04-02T03:17:30.808Z,963.77
2016-04-02T03:18:30.811Z,963.8
2016-04-02T03:19:30.814Z,963.76
2016-04-02T03:20:30.833Z,963.77
2016-04-02T03:21:30.835Z,963.76
2016-04-02T03:22:30.838Z,963.79
2016-04-02T03:23:30.840Z,963.75
2016-04-02T03:24:30.843Z,963.74
2016-04-02T03:25:30.861Z,963.69
2016-04-02T03:26:30.863Z,963.68
2016-04-02T03:27:30.866Z,963.67
2016-04-02T03:28:30.885Z,963.63
2016-04-02T03:29:30.872Z,963.61
2016-04-02T03:30:30.891Z,963.56
2016-04-02T03:31:30.893Z,963.53
2016-04-02T03:32:30.896Z,963.57
2016-04-02T03:33:30.914Z,963.53
2016-04-02T03:34:30.917Z,963.49
2016-04-02T03:35:30.920Z,963.54
2016-04-02T03:36:30.923Z,963.54
2016-04-02T03:37:30.940Z,963.52
2016-04-02T03:38:30.943Z,963.58
2016-04-02T03:39:30.945Z,963.55
2016-04-02T03:40:30.948Z,963.5
2016-04-02T03:41:30.951Z,963.43
2016-04-02T03:42:30.970Z,963.45
2016-04-02T03:43:30.973Z,963.46
2016-04-02T03:44:30.975Z,963.44
2016-04-02T03:45:30.978Z,963.45
2016-04-02T03:46:30.997Z,963.48
2016-04-02T03:47:30.999Z,963.48
2016-04-02T03:48:31.002Z,963.41
2016-04-02T03:49:31.004Z,963.49
2016-04-02T03:50:31.007Z,963.45
2016-04-02T03:51:31.024Z,963.46
2016-04-02T03:52:31.027Z,963.46
2016-04-02T03:53:31.030Z,963.47
2016-04-02T03:54:31.032Z,963.46
2016-04-02T03:55:31.051Z,963.45
2016-04-02T03:56:31.054Z,963.42
2016-04-02T03:57:31.057Z,963.42
2016-04-02T03:58:31.060Z,963.46
2016-04-02T03:59:31.077Z,963.44
2016-04-02T04:00:31.080Z,963.41
2016-04-02T04:01:31.082Z,963.45
2016-04-02T04:02:31.085Z,963.43
2016-04-02T04:03:31.088Z,963.44
2016-04-02T04:04:31.107Z,963.45
2016-04-02T04:05:31.110Z,963.41
2016-04-02T04:06:31.113Z,963.41
2016-04-02T04:07:31.115Z,963.38
2016-04-02T04:08:31.118Z,963.42
2016-04-02T04:09:31.137Z,963.41
2016-04-02T04:10:31.139Z,963.46
2016-04-02T04:11:31.142Z,963.4
2016-04-02T04:12:31.159Z,963.37
2016-04-02T04:13:31.162Z,963.35
2016-04-02T04:14:31.165Z,963.32
2016-04-02T04:15:31.167Z,963.3
2016-04-02T04:16:31.170Z,963.3
2016-04-02T04:17:31.188Z,963.26
2016-04-02T04:18:31.191Z,963.28
2016-04-02T04:19:31.194Z,963.22
2016-04-02T04:20:31.197Z,963.23
2016-04-02T04:21:31.216Z,963.23
2016-04-02T04:22:31.218Z,963.24
2016-04-02T04:23:31.221Z,963.27
2016-04-02T04:24:31.224Z,963.3
2016-04-02T04:25:31.226Z,963.33
2016-04-02T04:26:31.244Z,963.29
2016-04-02T04:27:31.246Z,963.32
2016-04-02T04:28:31.249Z,963.35
2016-04-02T04:29:31.251Z,963.35
2016-04-02T04:30:31.270Z,963.33
2016-04-02T04:31:31.273Z,963.37
2016-04-02T04:32:31.276Z,963.38
2016-04-02T04:33:31.278Z,963.45
2016-04-02T04:34:31.282Z,963.46
2016-04-02T04:35:31.299Z,963.46
2016-04-02T04:36:31.302Z,963.52
2016-04-02T04:37:31.305Z,963.5
2016-04-02T04:38:31.323Z,963.48
2016-04-02T04:39:31.326Z,963.52
2016-04-02T04:40:31.328Z,963.53
2016-04-02T04:41:31.331Z,963.59
2016-04-02T04:42:31.334Z,963.57
2016-04-02T04:43:31.353Z,963.58
2016-04-02T04:44:31.356Z,963.58
2016-04-02T04:45:31.358Z,963.6
2016-04-02T04:46:31.361Z,963.59
2016-04-02T04:47:31.379Z,963.6
2016-04-02T04:48:31.381Z,963.61
2016-04-02T04:49:31.384Z,963.63
2016-04-02T04:50:31.386Z,963.63
2016-04-02T04:51:31.389Z,963.64
2016-04-02T04:52:31.392Z,963.63
2016-04-02T04:53:31.410Z,963.6
2016-04-02T04:54:31.413Z,963.63
2016-04-02T04:55:31.416Z,963.57
2016-04-02T04:56:31.418Z,963.56
2016-04-02T04:57:31.438Z,963.54
2016-04-02T04:58:31.455Z,963.55
2016-04-02T04:59:31.443Z,963.49
2016-04-02T05:00:31.461Z,963.51
2016-04-02T05:01:31.463Z,963.51
2016-04-02T05:02:31.466Z,963.43
2016-04-02T05:03:31.468Z,963.43
2016-04-02T05:04:31.471Z,963.46
2016-04-02T05:05:31.490Z,963.46
2016-04-02T05:06:31.492Z,963.48
2016-04-02T05:07:31.495Z,963.48
2016-04-02T05:08:31.497Z,963.55
2016-04-02T05:09:31.500Z,963.55
2016-04-02T05:10:31.518Z,963.58
2016-04-02T05:11:31.520Z,963.61
2016-04-02T05:12:31.524Z,963.57
2016-04-02T05:13:31.526Z,963.54
2016-04-02T05:14:31.529Z,963.55
2016-04-02T05:15:31.548Z,963.61
2016-04-02T05:16:31.550Z,963.65
2016-04-02T05:17:31.553Z,963.59
2016-04-02T05:18:31.555Z,963.6
2016-04-02T05:19:31.574Z,963.57
2016-04-02T05:20:31.577Z,963.54
2016-04-02T05:21:31.580Z,963.58
2016-04-02T05:22:31.583Z,963.58
2016-04-02T05:23:31.601Z,963.61
2016-04-02T05:24:31.603Z,963.59
2016-04-02T05:25:31.606Z,963.58
2016-04-02T05:26:31.608Z,963.62
2016-04-02T05:27:31.611Z,963.62
2016-04-02T05:28:31.614Z,963.6
2016-04-02T05:29:31.632Z,963.6
2016-04-02T05:30:31.635Z,963.59
2016-04-02T05:31:31.637Z,963.55
2016-04-02T05:32:31.640Z,963.55
2016-04-02T05:33:31.659Z,963.56
2016-04-02T05:34:31.661Z,963.51
2016-04-02T05:35:31.664Z,963.53
2016-04-02T05:36:31.667Z,963.53
2016-04-02T05:37:31.685Z,963.55
2016-04-02T05:38:31.688Z,963.55
2016-04-02T05:39:31.690Z,963.59
2016-04-02T05:40:31.693Z,963.58
2016-04-02T05:41:31.711Z,963.57
2016-04-02T05:42:31.714Z,963.59
2016-04-02T05:43:31.717Z,963.57
2016-04-02T05:44:31.719Z,963.6
2016-04-02T05:45:31.737Z,963.62
2016-04-02T05:46:31.739Z,963.64
2016-04-02T05:47:31.742Z,963.67
2016-04-02T05:48:31.745Z,963.72
2016-04-02T05:49:31.764Z,963.73
2016-04-02T05:50:31.751Z,963.68
2016-04-02T05:51:31.770Z,963.76
2016-04-02T05:52:31.772Z,963.71
2016-04-02T05:53:31.775Z,963.7
2016-04-02T05:54:31.778Z,963.7
2016-04-02T05:55:31.780Z,963.69
2016-04-02T05:56:31.799Z,963.71
2016-04-02T05:57:31.801Z,963.69
2016-04-02T05:58:31.804Z,963.67
2016-04-02T05:59:31.822Z,963.77
2016-04-02T06:00:31.825Z,963.75
2016-04-02T06:01:31.828Z,963.71
2016-04-02T06:02:31.830Z,963.69
2016-04-02T06:03:31.833Z,963.66
2016-04-02T06:04:31.852Z,963.64
2016-04-02T06:05:31.854Z,963.69
2016-04-02T06:06:31.857Z,963.7
2016-04-02T06:07:31.859Z,963.64
2016-04-02T06:08:31.878Z,963.71
2016-04-02T06:09:31.881Z,963.7
2016-04-02T06:10:31.883Z,963.73
2016-04-02T06:11:31.886Z,963.72
2016-04-02T06:12:31.903Z,963.65
2016-04-02T06:13:31.906Z,963.63
2016-04-02T06:14:31.925Z,963.59
2016-04-02T06:15:31.928Z,963.6
2016-04-02T06:16:31.915Z,963.55
2016-04-02T06:17:31.934Z,963.54
2016-04-02T06:18:31.936Z,963.54
2016-04-02T06:19:31.939Z,963.54
2016-04-02T06:20:31.941Z,963.51
2016-04-02T06:21:31.944Z,963.5
2016-04-02T06:22:31.947Z,963.55
2016-04-02T06:23:31.964Z,963.52
2016-04-02T06:24:31.967Z,963.53
2016-04-02T06:25:31.985Z,963.57
2016-04-02T06:26:31.972Z,963.58
2016-04-02T06:27:31.991Z,963.6
2016-04-02T06:28:31.993Z,963.55
2016-04-02T06:29:31.996Z,963.56
2016-04-02T06:30:31.999Z,963.58
2016-04-02T06:31:32.017Z,963.57
2016-04-02T06:32:32.005Z,963.6
2016-04-02T06:33:32.023Z,963.56
2016-04-02T06:34:32.026Z,963.61
2016-04-02T06:35:32.028Z,963.62
2016-04-02T06:36:32.046Z,963.57
2016-04-02T06:37:32.049Z,963.52
2016-04-02T06:38:32.052Z,963.51
2016-04-02T06:39:32.055Z,963.5
2016-04-02T06:40:32.074Z,963.53
2016-04-02T06:41:32.076Z,963.59
2016-04-02T06:42:32.079Z,963.55
2016-04-02T06:43:32.082Z,963.58
2016-04-02T06:44:32.100Z,963.61
2016-04-02T06:45:32.087Z,963.57
2016-04-02T06:46:32.105Z,963.57
2016-04-02T06:47:32.108Z,963.58
2016-04-02T06:48:32.111Z,963.56
2016-04-02T06:49:32.113Z,963.59
2016-04-02T06:50:32.131Z,963.65
2016-04-02T06:51:32.133Z,963.67
2016-04-02T06:52:32.136Z,963.67
2016-04-02T06:53:32.139Z,963.68
2016-04-02T06:54:32.158Z,963.64
2016-04-02T06:55:32.161Z,963.63
2016-04-02T06:56:32.163Z,963.63
2016-04-02T06:57:32.166Z,963.61
2016-04-02T06:58:32.168Z,963.67
2016-04-02T06:59:32.186Z,963.62
2016-04-02T07:00:32.189Z,963.64
2016-04-02T07:01:32.191Z,963.61
2016-04-02T07:02:32.194Z,963.56
2016-04-02T07:03:32.212Z,963.58
2016-04-02T07:04:32.215Z,963.62
2016-04-02T07:05:32.218Z,963.59
2016-04-02T07:06:32.237Z,963.58
2016-04-02T07:07:32.239Z,963.6
2016-04-02T07:08:32.243Z,963.56
2016-04-02T07:09:32.245Z,963.52
2016-04-02T07:10:32.248Z,963.53
2016-04-02T07:11:32.266Z,963.49
2016-04-02T07:12:32.268Z,963.5
2016-04-02T07:13:32.271Z,963.54
2016-04-02T07:14:32.274Z,963.57
2016-04-02T07:15:32.276Z,963.59
2016-04-02T07:16:32.295Z,963.61
2016-04-02T07:17:32.298Z,963.59
2016-04-02T07:18:32.300Z,963.64
2016-04-02T07:19:32.303Z,963.52
2016-04-02T07:20:32.322Z,963.52
2016-04-02T07:21:32.308Z,963.54
2016-04-02T07:22:32.327Z,963.54
2016-04-02T07:23:32.330Z,963.54
2016-04-02T07:24:32.332Z,963.53
2016-04-02T07:25:32.335Z,963.49
2016-04-02T07:26:32.352Z,963.5
2016-04-02T07:27:32.355Z,963.48
2016-04-02T07:28:32.358Z,963.48
2016-04-02T07:29:32.361Z,963.45
2016-04-02T07:30:32.380Z,963.45
2016-04-02T07:31:32.382Z,963.39
2016-04-02T07:32:32.385Z,963.39
2016-04-02T07:33:32.402Z,963.39
2016-04-02T07:34:32.405Z,963.38
2016-04-02T07:35:32.408Z,963.45
2016-04-02T07:36:32.411Z,963.46
2016-04-02T07:37:32.413Z,963.46
2016-04-02T07:38:32.432Z,963.45
2016-04-02T07:39:32.434Z,963.47
2016-04-02T07:40:32.437Z,963.53
2016-04-02T07:41:32.440Z,963.57
2016-04-02T07:42:32.459Z,963.59
2016-04-02T07:43:32.446Z,963.58
2016-04-02T07:44:32.464Z,963.6
2016-04-02T07:45:32.467Z,963.62
2016-04-02T07:46:32.469Z,963.67
2016-04-02T07:47:32.487Z,963.68
2016-04-02T07:48:32.490Z,963.67
2016-04-02T07:49:32.492Z,963.64
2016-04-02T07:50:32.496Z,963.58
2016-04-02T07:51:32.498Z,963.56
2016-04-02T07:52:32.501Z,963.54
2016-04-02T07:53:32.520Z,963.56
2016-04-02T07:54:32.522Z,963.57
2016-04-02T07:55:32.525Z,963.57
2016-04-02T07:56:32.527Z,963.58
2016-04-02T07:57:32.546Z,963.61
2016-04-02T07:58:32.548Z,963.62
2016-04-02T07:59:32.551Z,963.6
2016-04-02T08:00:32.554Z,963.63
2016-04-02T08:01:32.557Z,963.69
2016-04-02T08:02:32.575Z,963.69
2016-04-02T08:03:32.578Z,963.71
2016-04-02T08:04:32.580Z,963.71
2016-04-02T08:05:32.583Z,963.69
2016-04-02T08:06:32.601Z,963.69
2016-04-02T08:07:32.604Z,963.67
2016-04-02T08:08:32.606Z,963.67
2016-04-02T08:09:32.624Z,963.65
2016-04-02T08:10:32.627Z,963.64
2016-04-02T08:11:32.629Z,963.64
2016-04-02T08:12:32.632Z,963.63
2016-04-02T08:13:32.635Z,963.62
2016-04-02T08:14:32.638Z,963.62
2016-04-02T08:15:32.688Z,963.63
2016-04-02T08:16:32.659Z,963.6
2016-04-02T08:17:32.662Z,963.61
2016-04-02T08:18:32.664Z,963.59
2016-04-02T08:19:32.683Z,963.62
2016-04-02T08:20:32.686Z,963.63
2016-04-02T08:21:32.704Z,963.62
2016-04-02T08:22:32.692Z,963.58
2016-04-02T08:23:32.709Z,963.63
2016-04-02T08:24:32.712Z,963.62
2016-04-02T08:25:32.714Z,963.66
2016-04-02T08:26:32.717Z,963.73
2016-04-02T08:27:32.719Z,963.74
2016-04-02T08:28:32.738Z,963.67
2016-04-02T08:29:32.741Z,963.68
2016-04-02T08:30:32.744Z,963.67
2016-04-02T08:31:32.747Z,963.66
2016-04-02T08:32:32.765Z,963.65
2016-04-02T08:33:32.768Z,963.66
2016-04-02T08:34:32.770Z,963.65
2016-04-02T08:35:32.773Z,963.62
2016-04-02T08:36:32.790Z,963.62
2016-04-02T08:37:32.793Z,963.57
2016-04-02T08:38:32.796Z,963.65
2016-04-02T08:39:32.799Z,963.63
2016-04-02T08:40:32.817Z,963.63
2016-04-02T08:41:32.821Z,963.62
2016-04-02T08:42:32.823Z,963.59
2016-04-02T08:43:32.826Z,963.5
2016-04-02T08:44:32.843Z,963.47
2016-04-02T08:45:32.846Z,963.49
2016-04-02T08:46:32.849Z,963.52
2016-04-02T08:47:32.868Z,963.5
2016-04-02T08:48:32.854Z,963.54
2016-04-02T08:49:32.857Z,963.58
2016-04-02T08:50:32.875Z,963.55
2016-04-02T08:51:32.878Z,963.56
2016-04-02T08:52:32.881Z,963.53
2016-04-02T08:53:32.883Z,963.48
2016-04-02T08:54:32.902Z,963.51
2016-04-02T08:55:32.905Z,963.48
2016-04-02T08:56:32.908Z,963.5
2016-04-02T08:57:32.911Z,963.51
2016-04-02T08:58:32.928Z,963.52
2016-04-02T08:59:32.931Z,963.53
2016-04-02T09:00:32.933Z,963.55
2016-04-02T09:01:32.936Z,963.54
2016-04-02T09:02:32.938Z,963.51
2016-04-02T09:03:32.958Z,963.52
2016-04-02T09:04:32.960Z,963.43
2016-04-02T09:05:32.963Z,963.47
2016-04-02T09:06:32.981Z,963.51
2016-04-02T09:07:32.984Z,963.42
2016-04-02T09:08:32.986Z,963.45
2016-04-02T09:09:32.989Z,963.49
2016-04-02T09:10:32.992Z,963.43
2016-04-02T09:11:33.010Z,963.44
2016-04-02T09:12:33.029Z,963.37
2016-04-02T09:13:33.015Z,963.36
2016-04-02T09:14:33.034Z,963.35
2016-04-02T09:15:33.037Z,963.35
2016-04-02T09:16:33.040Z,963.31
2016-04-02T09:17:33.043Z,963.36
2016-04-02T09:18:33.045Z,963.29
2016-04-02T09:19:33.063Z,963.37
2016-04-02T09:20:33.065Z,963.34
2016-04-02T09:21:33.068Z,963.4
2016-04-02T09:22:33.070Z,963.35
2016-04-02T09:23:33.073Z,963.38
2016-04-02T09:24:33.092Z,963.31
2016-04-02T09:25:33.095Z,963.27
2016-04-02T09:26:33.098Z,963.28
2016-04-02T09:27:33.116Z,963.28
2016-04-02T09:28:33.119Z,963.31
2016-04-02T09:29:33.121Z,963.35
2016-04-02T09:30:33.124Z,963.35
2016-04-02T09:31:33.126Z,963.39
2016-04-02T09:32:33.144Z,963.38
2016-04-02T09:33:33.147Z,963.33
2016-04-02T09:34:33.150Z,963.37
2016-04-02T09:35:33.153Z,963.29
2016-04-02T09:36:33.171Z,963.28
2016-04-02T09:37:33.174Z,963.31
2016-04-02T09:38:33.176Z,963.32
2016-04-02T09:39:33.196Z,963.31
2016-04-02T09:40:33.198Z,963.29
2016-04-02T09:41:33.201Z,963.25
2016-04-02T09:42:33.203Z,963.25
2016-04-02T09:43:33.206Z,963.23
2016-04-02T09:44:33.209Z,963.27
2016-04-02T09:45:33.226Z,963.32
2016-04-02T09:46:33.229Z,963.32
2016-04-02T09:47:33.231Z,963.32
2016-04-02T09:48:33.251Z,963.31
2016-04-02T09:49:33.253Z,963.31
2016-04-02T09:50:33.256Z,963.33
2016-04-02T09:51:33.258Z,963.31
2016-04-02T09:52:33.276Z,963.32
2016-04-02T09:53:33.279Z,963.35
2016-04-02T09:54:33.281Z,963.35
2016-04-02T09:55:33.284Z,963.38
2016-04-02T09:56:33.287Z,963.35
2016-04-02T09:57:33.306Z,963.34
2016-04-02T09:58:33.309Z,963.37
2016-04-02T09:59:33.311Z,963.35
2016-04-02T10:00:33.330Z,963.37
2016-04-02T10:01:33.332Z,963.35
2016-04-02T10:02:33.335Z,963.35
2016-04-02T10:03:33.338Z,963.37
2016-04-02T10:04:33.356Z,963.35
2016-04-02T10:05:33.359Z,963.36
2016-04-02T10:06:33.361Z,963.36
2016-04-02T10:07:33.364Z,963.35
2016-04-02T10:08:33.366Z,963.37
2016-04-02T10:09:33.385Z,963.37
2016-04-02T10:10:33.387Z,963.3
2016-04-02T10:11:33.406Z,963.33
2016-04-02T10:12:33.409Z,963.3
2016-04-02T10:13:33.412Z,963.26
2016-04-02T10:14:33.430Z,963.24
2016-04-02T10:15:33.417Z,963.2
2016-04-02T10:16:33.435Z,963.24
2016-04-02T10:17:33.437Z,963.2
2016-04-02T10:18:33.440Z,963.22
2016-04-02T10:19:33.458Z,963.24
2016-04-02T10:20:33.461Z,963.18
2016-04-02T10:21:33.464Z,963.23
2016-04-02T10:22:33.467Z,963.17
2016-04-02T10:23:33.470Z,963.18
2016-04-02T10:24:33.487Z,963.17
2016-04-02T10:25:33.490Z,963.17
2016-04-02T10:26:33.492Z,963.12
2016-04-02T10:27:33.511Z,963.07
2016-04-02T10:28:33.514Z,963.12
2016-04-02T10:29:33.517Z,963.13
2016-04-02T10:30:33.520Z,963.18
2016-04-02T10:31:33.538Z,963.14
2016-04-02T10:32:33.541Z,963.13
2016-04-02T10:33:33.543Z,963.16
2016-04-02T10:34:33.546Z,963.11
2016-04-02T10:35:33.563Z,963.16
2016-04-02T10:36:33.566Z,963.16
2016-04-02T10:37:33.569Z,963.09
2016-04-02T10:38:33.588Z,963.13
2016-04-02T10:39:33.591Z,963.12
2016-04-02T10:40:33.593Z,963.15
2016-04-02T10:41:33.596Z,963.18
2016-04-02T10:42:33.615Z,963.2
2016-04-02T10:43:33.617Z,963.25
2016-04-02T10:44:33.620Z,963.24
2016-04-02T10:45:33.622Z,963.24
2016-04-02T10:46:33.640Z,963.19
2016-04-02T10:47:33.643Z,963.15
2016-04-02T10:48:33.646Z,963.17
2016-04-02T10:49:33.665Z,963.16
2016-04-02T10:50:33.667Z,963.12
2016-04-02T10:51:33.670Z,963.07
2016-04-02T10:52:33.687Z,963.1
2016-04-02T10:53:33.691Z,963.06
2016-04-02T10:54:33.693Z,963
2016-04-02T10:55:33.696Z,963.03
2016-04-02T10:56:33.715Z,963.06
2016-04-02T10:57:33.717Z,963.08
2016-04-02T10:58:33.736Z,963.11
2016-04-02T10:59:33.738Z,963.14
2016-04-02T11:00:33.741Z,963.09
2016-04-02T11:01:33.743Z,963.03
2016-04-02T11:02:33.751Z,963.01
2016-04-02T11:03:33.758Z,962.97
2016-04-02T11:04:33.734Z,962.9
2016-04-02T11:05:33.758Z,962.91
2016-04-02T11:06:33.733Z,962.89
2016-04-02T11:07:33.731Z,962.88
2016-04-02T11:08:33.730Z,962.88
2016-04-02T11:09:33.728Z,962.84
2016-04-02T11:10:33.742Z,962.81
2016-04-02T11:11:33.741Z,962.81
2016-04-02T11:12:33.757Z,962.78
2016-04-02T11:13:33.758Z,962.74
2016-04-02T11:14:33.759Z,962.75
2016-04-02T11:15:33.760Z,962.79
2016-04-02T11:16:33.777Z,962.76
2016-04-02T11:17:33.795Z,962.74
2016-04-02T11:18:33.783Z,962.75
2016-04-02T11:19:33.785Z,962.73
2016-04-02T11:20:33.802Z,962.73
2016-04-02T11:21:33.804Z,962.73
2016-04-02T11:22:33.807Z,962.73
2016-04-02T11:23:33.826Z,962.71
2016-04-02T11:24:33.829Z,962.63
2016-04-02T11:25:33.832Z,962.67
2016-04-02T11:26:33.834Z,962.65
2016-04-02T11:27:33.853Z,962.66
2016-04-02T11:28:33.855Z,962.67
2016-04-02T11:29:33.858Z,962.63
2016-04-02T11:30:33.876Z,962.69
2016-04-02T11:31:33.878Z,962.7
2016-04-02T11:32:33.881Z,962.67
2016-04-02T11:33:33.884Z,962.62
2016-04-02T11:34:33.903Z,962.62
2016-04-02T11:35:33.906Z,962.63
2016-04-02T11:36:33.908Z,962.61
2016-04-02T11:37:33.927Z,962.64
2016-04-02T11:38:33.929Z,962.63
2016-04-02T11:39:33.932Z,962.61
2016-04-02T11:40:33.934Z,962.66
2016-04-02T11:41:33.952Z,962.64
2016-04-02T11:42:33.955Z,962.65
2016-04-02T11:43:33.957Z,962.62
2016-04-02T11:44:33.977Z,962.62
2016-04-02T11:45:33.979Z,962.65
2016-04-02T11:46:33.982Z,962.68
2016-04-02T11:47:33.984Z,962.65
2016-04-02T11:48:34.002Z,962.62
2016-04-02T11:49:34.005Z,962.63
2016-04-02T11:50:34.008Z,962.64
2016-04-02T11:51:34.027Z,962.62
2016-04-02T11:52:34.029Z,962.64
2016-04-02T11:53:34.032Z,962.62
2016-04-02T11:54:34.050Z,962.67
2016-04-02T11:55:34.053Z,962.64
2016-04-02T11:56:34.055Z,962.64
2016-04-02T11:57:34.073Z,962.58
2016-04-02T11:58:34.076Z,962.55
2016-04-02T11:59:34.078Z,962.56
2016-04-02T12:00:34.082Z,962.54
2016-04-02T12:01:34.100Z,962.49
2016-04-02T12:02:34.103Z,962.47
2016-04-02T12:03:34.105Z,962.44
2016-04-02T12:04:34.108Z,962.41
2016-04-02T12:05:34.127Z,962.41
2016-04-02T12:06:34.144Z,962.37
2016-04-02T12:07:34.132Z,962.35
2016-04-02T12:08:34.149Z,962.31
2016-04-02T12:09:34.152Z,962.25
2016-04-02T12:10:34.155Z,962.27
2016-04-02T12:11:34.174Z,962.22
2016-04-02T12:12:34.177Z,962.23
2016-04-02T12:13:34.179Z,962.25
2016-04-02T12:14:34.197Z,962.22
2016-04-02T12:15:34.200Z,962.2
2016-04-02T12:16:34.202Z,962.21
2016-04-02T12:17:34.222Z,962.25
2016-04-02T12:18:34.224Z,962.2
2016-04-02T12:19:34.227Z,962.2
2016-04-02T12:20:34.229Z,962.2
2016-04-02T12:21:34.248Z,962.24
2016-04-02T12:22:34.251Z,962.25
2016-04-02T12:23:34.268Z,962.27
2016-04-02T12:24:34.271Z,962.28
2016-04-02T12:25:34.273Z,962.35
2016-04-02T12:26:34.277Z,962.34
2016-04-02T12:27:34.295Z,962.37
2016-04-02T12:28:34.298Z,962.35
2016-04-02T12:29:34.301Z,962.31
2016-04-02T12:30:34.319Z,962.35